MacClenny, Florida
Current Conditions -  °F | °C
As of 8:15 PM on Tuesday 25 Nov 2014 (Local Time) from KVQQ Reporting Station
Light Rain Light Rain  
Wind Chill: 63°   Ceiling: 100
Heat Index: 63°   Visibility: 3mi
Dew Point: 63°   Wind: 5mph
Humidity: 100%   Direction: 40°NE
Pressure: 29.94"   Gusts: NA
Location:  30.28°N, 82.12°W
Report Text: KVQQ 260115Z AUTO 04004KT 3SM -RA BKN001 OVC005 17/17 A2994 RMK AO2 LTG DSNT SE AND S
Loading
Personal Weather Stations






























Interactive Weather Map New forecast layout! Learn more

10-Day Weather Forecast

Advertisements
Track Severe Weather on mobile